EDV4974 KOKC-KMSP
Flight info
| Callsign | EDV4974 |
|---|---|
| Flight time | N/A |
| Altitude | 37000 |
| Route | WENDY3 BELMN TRAIG ROKKK NITZR3 |
| Aircraft | CRJ9/M-SDFGIRWY/S |
Departure
| Time | 2026-04-26 22:21 |
|---|---|
| Airport | OKC Will Rogers World Airport (KOKC) |
Arrival
| Time | N/A |
|---|---|
| Airport | Minneapolis–Saint Paul International Airport / Wold–Chamberlain Field (KMSP) |
| Time | Latitude | Longitude | Altitude | Speed | Heading |
|---|---|---|---|---|---|
| 2026-04-26 21:36 | 35.39521 | -97.59366 | 1295 ft | 0 kts | 276° |
| 2026-04-26 22:04 | 35.39520 | -97.59358 | 1295 ft | 2 kts | 275° |
| 2026-04-26 22:04 | 35.39519 | -97.59338 | 1323 ft | 2 kts | 276° |
| 2026-04-26 22:05 | 35.39517 | -97.59318 | 1283 ft | 2 kts | 276° |
| 2026-04-26 22:05 | 35.39515 | -97.59297 | 1295 ft | 2 kts | 276° |
| 2026-04-26 22:05 | 35.39514 | -97.59277 | 1295 ft | 2 kts | 275° |
| 2026-04-26 22:05 | 35.39513 | -97.59270 | 1295 ft | 0 kts | 276° |
| 2026-04-26 22:09 | 35.39513 | -97.59271 | 1295 ft | 0 kts | 276° |
| 2026-04-26 22:10 | 35.39513 | -97.59272 | 1295 ft | 0 kts | 290° |
| 2026-04-26 22:10 | 35.39525 | -97.59286 | 1295 ft | 1 kts | 336° |
| 2026-04-26 22:10 | 35.39536 | -97.59286 | 1295 ft | 5 kts | 12° |
| 2026-04-26 22:11 | 35.39555 | -97.59276 | 1295 ft | 0 kts | 28° |
| 2026-04-26 22:11 | 35.39556 | -97.59275 | 1295 ft | 0 kts | 28° |
| 2026-04-26 22:11 | 35.39573 | -97.59254 | 1296 ft | 6 kts | 62° |
| 2026-04-26 22:11 | 35.39580 | -97.59209 | 1296 ft | 5 kts | 89° |
| 2026-04-26 22:12 | 35.39580 | -97.59208 | 1295 ft | 0 kts | 89° |
| 2026-04-26 22:12 | 35.39581 | -97.59205 | 1295 ft | 2 kts | 85° |
| 2026-04-26 22:13 | 35.39602 | -97.59177 | 1294 ft | 8 kts | 20° |
| 2026-04-26 22:13 | 35.39670 | -97.59154 | 1294 ft | 12 kts | 16° |
| 2026-04-26 22:13 | 35.39755 | -97.59147 | 1294 ft | 15 kts | 0° |
| 2026-04-26 22:13 | 35.39868 | -97.59147 | 1293 ft | 17 kts | 1° |
| 2026-04-26 22:14 | 35.39987 | -97.59145 | 1292 ft | 18 kts | 0° |
| 2026-04-26 22:14 | 35.40111 | -97.59146 | 1291 ft | 18 kts | 359° |
| 2026-04-26 22:14 | 35.40238 | -97.59147 | 1290 ft | 18 kts | 360° |
| 2026-04-26 22:14 | 35.40368 | -97.59147 | 1289 ft | 19 kts | 360° |
| 2026-04-26 22:15 | 35.40487 | -97.59136 | 1289 ft | 8 kts | 29° |
| 2026-04-26 22:15 | 35.40500 | -97.59121 | 1289 ft | 0 kts | 73° |
| 2026-04-26 22:15 | 35.40503 | -97.59097 | 1290 ft | 8 kts | 84° |
| 2026-04-26 22:15 | 35.40503 | -97.59030 | 1291 ft | 7 kts | 91° |
| 2026-04-26 22:16 | 35.40503 | -97.59015 | 1291 ft | 0 kts | 90° |
| 2026-04-26 22:19 | 35.40503 | -97.58979 | 1292 ft | 6 kts | 89° |
| 2026-04-26 22:19 | 35.40503 | -97.58920 | 1292 ft | 8 kts | 102° |
| 2026-04-26 22:19 | 35.40480 | -97.58898 | 1293 ft | 1 kts | 176° |
| 2026-04-26 22:20 | 35.40474 | -97.58897 | 1293 ft | 2 kts | 178° |
| 2026-04-26 22:20 | 35.40417 | -97.58896 | 1293 ft | 31 kts | 180° |
| 2026-04-26 22:20 | 35.39680 | -97.58895 | 1289 ft | 124 kts | 180° |
| 2026-04-26 22:20 | 35.38649 | -97.58892 | 1414 ft | 164 kts | 180° |
| 2026-04-26 22:21 | 35.37504 | -97.58838 | 2227 ft | 163 kts | 178° |
| 2026-04-26 22:21 | 35.36396 | -97.58682 | 3148 ft | 160 kts | 176° |
| 2026-04-26 22:21 | 35.35258 | -97.58560 | 3796 ft | 168 kts | 180° |
| 2026-04-26 22:21 | 35.34082 | -97.58470 | 4549 ft | 170 kts | 179° |
| 2026-04-26 22:22 | 35.32982 | -97.57883 | 5231 ft | 189 kts | 137° |
| 2026-04-26 22:22 | 35.32559 | -97.56271 | 5844 ft | 216 kts | 91° |
| 2026-04-26 22:22 | 35.33158 | -97.54547 | 6460 ft | 231 kts | 49° |
| 2026-04-26 22:22 | 35.34550 | -97.53494 | 6777 ft | 248 kts | 8° |
| 2026-04-26 22:23 | 35.36257 | -97.53252 | 7507 ft | 246 kts | 356° |
| 2026-04-26 22:23 | 35.38001 | -97.53177 | 8173 ft | 259 kts | 354° |
| 2026-04-26 22:23 | 35.39877 | -97.53175 | 8664 ft | 279 kts | 353° |
| 2026-04-26 22:23 | 35.41872 | -97.53197 | 9275 ft | 295 kts | 352° |
| 2026-04-26 22:24 | 35.43968 | -97.53242 | 9939 ft | 306 kts | 352° |
| 2026-04-26 22:24 | 35.46116 | -97.53309 | 10652 ft | 316 kts | 351° |
| 2026-04-26 22:24 | 35.48384 | -97.53408 | 11090 ft | 335 kts | 351° |
| 2026-04-26 22:24 | 35.50768 | -97.53510 | 11580 ft | 351 kts | 352° |
| 2026-04-26 22:25 | 35.53258 | -97.53614 | 12171 ft | 362 kts | 352° |
| 2026-04-26 22:25 | 35.54934 | -97.53677 | 12723 ft | 365 kts | 352° |
| 2026-04-26 22:25 | 35.58322 | -97.53801 | 13697 ft | 370 kts | 352° |
| 2026-04-26 22:25 | 35.60908 | -97.53888 | 14366 ft | 372 kts | 352° |
| 2026-04-26 22:26 | 35.63507 | -97.53969 | 15041 ft | 375 kts | 352° |
| 2026-04-26 22:26 | 35.66127 | -97.54043 | 15716 ft | 378 kts | 353° |
| 2026-04-26 22:26 | 35.68769 | -97.54111 | 16379 ft | 381 kts | 353° |
| 2026-04-26 22:26 | 35.70565 | -97.54152 | 16822 ft | 383 kts | 353° |
| 2026-04-26 22:27 | 35.73241 | -97.54206 | 17451 ft | 386 kts | 353° |
| 2026-04-26 22:27 | 35.75939 | -97.54252 | 18057 ft | 389 kts | 353° |
| 2026-04-26 22:27 | 35.78617 | -97.54285 | 18586 ft | 392 kts | 353° |
| 2026-04-26 22:27 | 35.81353 | -97.54307 | 19103 ft | 395 kts | 354° |
| 2026-04-26 22:28 | 35.84108 | -97.54313 | 19625 ft | 398 kts | 354° |
| 2026-04-26 22:28 | 35.86887 | -97.54300 | 20124 ft | 401 kts | 354° |
| 2026-04-26 22:28 | 35.89684 | -97.54261 | 20628 ft | 404 kts | 355° |
| 2026-04-26 22:28 | 35.92500 | -97.54174 | 21117 ft | 406 kts | 355° |
| 2026-04-26 22:29 | 35.95318 | -97.54261 | 21572 ft | 406 kts | 352° |
| 2026-04-26 22:29 | 35.98164 | -97.53740 | 21975 ft | 426 kts | 14° |
| 2026-04-26 22:29 | 36.00817 | -97.51992 | 22415 ft | 437 kts | 27° |
| 2026-04-26 22:29 | 36.03410 | -97.49996 | 22797 ft | 440 kts | 25° |
| 2026-04-26 22:30 | 36.06130 | -97.48270 | 23225 ft | 438 kts | 18° |
| 2026-04-26 22:30 | 36.08963 | -97.46891 | 23588 ft | 438 kts | 13° |
| 2026-04-26 22:30 | 36.11848 | -97.45643 | 23944 ft | 439 kts | 13° |
| 2026-04-26 22:30 | 36.14740 | -97.44392 | 24299 ft | 442 kts | 13° |
| 2026-04-26 22:31 | 36.17638 | -97.43079 | 24649 ft | 445 kts | 14° |
| 2026-04-26 22:31 | 36.20544 | -97.41716 | 24982 ft | 447 kts | 14° |
| 2026-04-26 22:31 | 36.23460 | -97.40345 | 25309 ft | 449 kts | 14° |
| 2026-04-26 22:31 | 36.26353 | -97.38981 | 25628 ft | 452 kts | 14° |
| 2026-04-26 22:32 | 36.29302 | -97.37591 | 25915 ft | 455 kts | 14° |
| 2026-04-26 22:32 | 36.32269 | -97.36197 | 26216 ft | 457 kts | 14° |
| 2026-04-26 22:32 | 36.35249 | -97.34794 | 26519 ft | 459 kts | 14° |
| 2026-04-26 22:32 | 36.38238 | -97.33384 | 26805 ft | 461 kts | 14° |
| 2026-04-26 22:33 | 36.41240 | -97.31966 | 27084 ft | 463 kts | 14° |
| 2026-04-26 22:33 | 36.47285 | -97.29108 | 27637 ft | 467 kts | 14° |
| 2026-04-26 22:33 | 36.50331 | -97.27669 | 27770 ft | 472 kts | 14° |
| 2026-04-26 22:34 | 36.53385 | -97.26220 | 28247 ft | 468 kts | 14° |
| 2026-04-26 22:34 | 36.56429 | -97.24771 | 28609 ft | 468 kts | 13° |
| 2026-04-26 22:34 | 36.59467 | -97.23331 | 28944 ft | 467 kts | 13° |
| 2026-04-26 22:34 | 36.62504 | -97.21892 | 29295 ft | 466 kts | 13° |
| 2026-04-26 22:35 | 36.65535 | -97.20462 | 29633 ft | 466 kts | 13° |
| 2026-04-26 22:35 | 36.68561 | -97.19029 | 29924 ft | 465 kts | 13° |
| 2026-04-26 22:35 | 36.71582 | -97.17593 | 30202 ft | 464 kts | 13° |
| 2026-04-26 22:35 | 36.74599 | -97.16156 | 30462 ft | 464 kts | 13° |
| 2026-04-26 22:36 | 36.77590 | -97.14651 | 30717 ft | 465 kts | 14° |
| 2026-04-26 22:36 | 36.80582 | -97.13086 | 30928 ft | 466 kts | 15° |
| 2026-04-26 22:36 | 36.83569 | -97.11511 | 31199 ft | 465 kts | 15° |
| 2026-04-26 22:36 | 36.86511 | -97.09971 | 31437 ft | 464 kts | 14° |
| 2026-04-26 22:37 | 36.89499 | -97.08443 | 31696 ft | 463 kts | 14° |
| 2026-04-26 22:37 | 36.92480 | -97.06920 | 31934 ft | 462 kts | 13° |
| 2026-04-26 22:37 | 36.95453 | -97.05399 | 32196 ft | 462 kts | 13° |
| 2026-04-26 22:37 | 36.98427 | -97.03876 | 32427 ft | 461 kts | 13° |
| 2026-04-26 22:38 | 37.01396 | -97.02356 | 32676 ft | 460 kts | 13° |
| 2026-04-26 22:38 | 37.04367 | -97.00834 | 32859 ft | 462 kts | 13° |
| 2026-04-26 22:38 | 37.07357 | -96.99302 | 33038 ft | 463 kts | 13° |
| 2026-04-26 22:38 | 37.10329 | -96.97776 | 33273 ft | 462 kts | 13° |
| 2026-04-26 22:39 | 37.13301 | -96.96246 | 33498 ft | 461 kts | 13° |